Terminal Aerodrome Forecast
Issued by NWS

Home | Current Version | Previous Version | Graphics & Text | Print | Product List | Glossary On
Versions: 1 2 3 4 5 6 7 8 9 10 11 12 13 14 15 16
000
FTUS43 KMPX 221142
TAFRWF
TAF
KRWF 221142Z 2212/2312 03014KT 5SM -SN OVC008
     FM221300 03015G23KT P6SM VCSH OVC008
     FM221500 02015G23KT P6SM -SN OVC008
     FM221700 02017KT 3SM -SN BLSN OVC010
     FM222000 01017KT 1 1/2SM -SN BLSN OVC015
     FM222200 36017KT 1SM BLSN VCSH OVC020
     FM230000 35018KT 3SM BLSN OVC015
     FM230200 35016G24KT P6SM OVC015
     FM230900 32011KT P6SM SCT025=

USA.gov is the U.S. government's official web portal to all federal, state and local government web resources and services.